createdAt,value
2022-08-03T00:00:41.901Z,72.41
2022-08-03T00:01:41.901Z,72.91
2022-08-03T00:02:41.916Z,73.11
2022-08-03T00:03:41.904Z,73.31
2022-08-03T00:04:41.896Z,73.51
2022-08-03T00:06:03.480Z,73.31
2022-08-03T00:06:41.897Z,72.94
2022-08-03T00:07:41.901Z,73.81
2022-08-03T00:08:41.890Z,73.71
2022-08-03T00:09:41.895Z,73.51
2022-08-03T00:10:41.923Z,73.41
2022-08-03T00:11:41.901Z,73.41
2022-08-03T00:12:41.886Z,72.81
2022-08-03T00:13:41.875Z,73.31
2022-08-03T00:14:41.929Z,73.31
2022-08-03T00:15:41.885Z,73.21
2022-08-03T00:16:41.881Z,73.47
2022-08-03T00:17:52.081Z,73.21
2022-08-03T00:18:41.881Z,72.87
2022-08-03T00:19:41.890Z,72.97
2022-08-03T00:20:41.869Z,73.18
2022-08-03T00:21:41.872Z,72.47
2022-08-03T00:22:41.868Z,72.27
2022-08-03T00:23:52.462Z,72.47
2022-08-03T00:24:41.862Z,72.67
2022-08-03T00:25:41.856Z,72.47
2022-08-03T00:26:41.862Z,72.97
2022-08-03T00:27:41.860Z,72.67
2022-08-03T00:28:41.859Z,72.97
2022-08-03T00:29:59.815Z,72.97
2022-08-03T00:30:41.898Z,72.37
2022-08-03T00:31:52.314Z,72.67
2022-08-03T00:32:44.270Z,72.77
2022-08-03T00:33:58.855Z,73.07
2022-08-03T00:34:57.865Z,73.18
2022-08-03T00:35:50.725Z,72.67
2022-08-03T00:36:41.842Z,72.87
2022-08-03T00:37:42.024Z,72.77
2022-08-03T00:38:41.842Z,72.77
2022-08-03T00:39:41.847Z,72.37
2022-08-03T00:40:41.838Z,72.57
2022-08-03T00:41:41.840Z,72.37
2022-08-03T00:42:41.843Z,72.87
2022-08-03T00:43:41.835Z,72.67
2022-08-03T00:44:41.831Z,72.37
2022-08-03T00:45:41.835Z,73.07
2022-08-03T00:46:41.827Z,72.87
2022-08-03T00:47:41.830Z,72.87
2022-08-03T00:48:41.825Z,73.07
2022-08-03T00:49:41.879Z,73.27
2022-08-03T00:50:41.825Z,73.38
2022-08-03T00:51:41.822Z,73.38
2022-08-03T00:52:41.822Z,73.47
2022-08-03T00:53:41.823Z,73.38
2022-08-03T00:54:41.826Z,73.58
2022-08-03T00:55:41.816Z,73.38
2022-08-03T00:56:41.814Z,73.18
2022-08-03T00:57:41.821Z,73.38
2022-08-03T00:58:41.813Z,73.38
2022-08-03T00:59:41.809Z,73.27
2022-08-03T01:00:41.808Z,73.18
2022-08-03T01:01:41.905Z,73.47
2022-08-03T01:02:41.804Z,73.51
2022-08-03T01:03:41.807Z,73.51
2022-08-03T01:04:41.803Z,73.71
2022-08-03T01:05:41.802Z,73.51
2022-08-03T01:06:41.804Z,73.91
2022-08-03T01:07:41.795Z,74.72
2022-08-03T01:08:41.791Z,74.41
2022-08-03T01:09:41.799Z,73.91
2022-08-03T01:10:41.788Z,74.52
2022-08-03T01:12:00.249Z,74.95
2022-08-03T01:12:41.788Z,74.45
2022-08-03T01:14:04.067Z,75.26
2022-08-03T01:14:41.796Z,74.95
2022-08-03T01:15:41.784Z,74.75
2022-08-03T01:16:41.782Z,74.45
2022-08-03T01:17:41.780Z,74.65
2022-08-03T01:18:41.779Z,75.15
2022-08-03T01:19:41.776Z,75.15
2022-08-03T01:20:41.776Z,75.46
2022-08-03T01:21:41.775Z,75.35
2022-08-03T01:22:41.771Z,75.35
2022-08-03T01:23:41.770Z,76.16
2022-08-03T01:24:41.766Z,75.02
2022-08-03T01:25:41.763Z,75.12
2022-08-03T01:26:41.768Z,74.32
2022-08-03T01:27:41.760Z,74.82
2022-08-03T01:28:41.761Z,74.52
2022-08-03T01:29:41.766Z,74.62
2022-08-03T01:30:41.757Z,74.32
2022-08-03T01:32:58.628Z,74.18
2022-08-03T01:32:58.899Z,74.72
2022-08-03T01:33:41.755Z,74.21
2022-08-03T01:34:41.748Z,73.41
2022-08-03T01:35:41.749Z,74.08
2022-08-03T01:36:41.745Z,73.47
2022-08-03T01:37:41.747Z,74.18
2022-08-03T01:38:41.748Z,74.01
2022-08-03T01:39:41.742Z,73.88
2022-08-03T01:40:41.747Z,74.18
2022-08-03T01:41:41.745Z,74.28
2022-08-03T01:42:41.736Z,74.28
2022-08-03T01:44:26.406Z,74.18
2022-08-03T01:44:41.741Z,73.47
2022-08-03T01:45:41.726Z,73.78
2022-08-03T01:46:47.667Z,73.61
2022-08-03T01:47:41.732Z,74.08
2022-08-03T01:48:41.732Z,74.62
2022-08-03T01:49:41.797Z,74.08
2022-08-03T01:50:41.722Z,74.11
2022-08-03T01:52:03.179Z,74.62
2022-08-03T01:52:41.719Z,74.08
2022-08-03T01:53:41.723Z,74.62
2022-08-03T01:54:41.717Z,74.32
2022-08-03T01:55:41.715Z,74.62
2022-08-03T01:56:41.734Z,74.38
2022-08-03T01:58:04.598Z,74.11
2022-08-03T01:58:41.709Z,74.01
2022-08-03T01:59:41.711Z,73.98
2022-08-03T02:00:41.754Z,74.18
2022-08-03T02:02:31.697Z,74.32
2022-08-03T02:02:42.313Z,73.78
2022-08-03T02:04:00.050Z,73.68
2022-08-03T02:04:41.700Z,73.47
2022-08-03T02:05:41.705Z,73.18
2022-08-03T02:07:02.815Z,72.97
2022-08-03T02:07:41.694Z,72.77
2022-08-03T02:08:41.697Z,72.97
2022-08-03T02:09:41.686Z,72.37
2022-08-03T02:10:41.688Z,72.67
2022-08-03T02:11:41.684Z,72.57
2022-08-03T02:12:41.685Z,73.18
2022-08-03T02:13:41.686Z,73.27
2022-08-03T02:14:41.686Z,73.18
2022-08-03T02:15:41.679Z,72.97
2022-08-03T02:16:41.686Z,72.77
2022-08-03T02:17:41.683Z,73.07
2022-08-03T02:18:41.677Z,72.37
2022-08-03T02:19:41.675Z,72.37
2022-08-03T02:20:41.676Z,72.97
2022-08-03T02:21:56.560Z,72.67
2022-08-03T02:22:41.670Z,72.37
2022-08-03T02:23:41.667Z,72.77
2022-08-03T02:24:41.659Z,72.87
2022-08-03T02:25:41.673Z,72.77
2022-08-03T02:26:41.659Z,72.87
2022-08-03T02:27:43.680Z,72.97
2022-08-03T02:28:41.660Z,72.87
2022-08-03T02:29:41.654Z,73.07
2022-08-03T02:30:41.654Z,72.97
2022-08-03T02:31:41.657Z,72.97
2022-08-03T02:32:41.658Z,73.07
2022-08-03T02:33:41.646Z,73.07
2022-08-03T02:34:41.648Z,72.37
2022-08-03T02:35:41.650Z,72.57
2022-08-03T02:36:41.644Z,72.77
2022-08-03T02:37:42.902Z,72.57
2022-08-03T02:38:41.657Z,72.67
2022-08-03T02:39:41.640Z,72.77
2022-08-03T02:40:41.642Z,72.07
2022-08-03T02:41:41.636Z,72.57
2022-08-03T02:42:41.635Z,72.47
2022-08-03T02:44:06.314Z,72.97
2022-08-03T02:44:41.641Z,73.27
2022-08-03T02:45:45.385Z,73.07
2022-08-03T02:46:41.627Z,73.58
2022-08-03T02:47:54.058Z,73.47
2022-08-03T02:48:41.621Z,73.81
2022-08-03T02:49:50.915Z,73.58
2022-08-03T02:50:41.621Z,73.71
2022-08-03T02:51:41.623Z,73.71
2022-08-03T02:52:41.625Z,73.61
2022-08-03T02:53:41.617Z,73.71
2022-08-03T02:54:41.611Z,73.91
2022-08-03T02:55:45.614Z,73.91
2022-08-03T02:56:41.609Z,73.81
2022-08-03T02:57:41.611Z,72.91
2022-08-03T02:58:41.607Z,73.11
2022-08-03T02:59:41.607Z,73.41
2022-08-03T03:00:41.647Z,73.51
2022-08-03T03:01:41.609Z,73.11
2022-08-03T03:02:44.444Z,73.00
2022-08-03T03:03:44.903Z,72.91
2022-08-03T03:04:44.433Z,72.71
2022-08-03T03:05:54.836Z,73.11
2022-08-03T03:06:41.591Z,72.61
2022-08-03T03:07:52.261Z,72.10
2022-08-03T03:08:41.588Z,73.11
2022-08-03T03:09:43.203Z,73.41
2022-08-03T03:10:41.590Z,73.91
2022-08-03T03:11:41.582Z,73.44
2022-08-03T03:12:41.590Z,73.55
2022-08-03T03:13:41.588Z,73.95
2022-08-03T03:14:41.578Z,73.75
2022-08-03T03:15:41.580Z,74.38
2022-08-03T03:16:41.577Z,73.65
2022-08-03T03:17:41.572Z,74.15
2022-08-03T03:18:41.571Z,74.38
2022-08-03T03:19:41.563Z,74.15
2022-08-03T03:20:41.563Z,74.18
2022-08-03T03:21:41.566Z,75.09
2022-08-03T03:22:41.565Z,74.69
2022-08-03T03:23:41.563Z,74.69
2022-08-03T03:24:41.567Z,74.45
2022-08-03T03:25:41.556Z,74.45
2022-08-03T03:26:42.511Z,75.29
2022-08-03T03:27:41.560Z,75.70
2022-08-03T03:28:41.553Z,75.39
2022-08-03T03:29:41.551Z,75.70
2022-08-03T03:30:41.552Z,74.62
2022-08-03T03:31:41.546Z,74.49
2022-08-03T03:32:41.540Z,74.38
2022-08-03T03:33:41.541Z,73.88
2022-08-03T03:34:41.541Z,73.58
2022-08-03T03:35:41.543Z,73.58
2022-08-03T03:36:41.546Z,73.82
2022-08-03T03:37:41.535Z,74.08
2022-08-03T03:38:41.543Z,73.58
2022-08-03T03:39:41.532Z,73.58
2022-08-03T03:40:41.581Z,74.38
2022-08-03T03:41:41.531Z,73.78
2022-08-03T03:42:41.518Z,73.72
2022-08-03T03:43:41.526Z,73.68
2022-08-03T03:44:41.521Z,73.82
2022-08-03T03:45:41.520Z,73.82
2022-08-03T03:46:41.516Z,73.72
2022-08-03T03:47:41.521Z,73.82
2022-08-03T03:48:41.515Z,73.92
2022-08-03T03:49:41.509Z,73.82
2022-08-03T03:50:41.512Z,73.72
2022-08-03T03:51:41.505Z,73.61
2022-08-03T03:52:41.506Z,73.52
2022-08-03T03:53:41.497Z,73.11
2022-08-03T03:54:41.493Z,72.61
2022-08-03T03:56:01.207Z,72.57
2022-08-03T03:56:41.488Z,72.37
2022-08-03T03:57:41.493Z,72.31
2022-08-03T03:58:41.501Z,72.51
2022-08-03T03:59:41.491Z,72.67
2022-08-03T04:00:41.534Z,72.07
2022-08-03T04:01:41.491Z,72.57
2022-08-03T04:02:41.482Z,73.28
2022-08-03T04:03:41.486Z,73.78
2022-08-03T04:04:41.484Z,73.78
2022-08-03T04:05:45.782Z,73.58
2022-08-03T04:06:41.472Z,73.78
2022-08-03T04:07:41.473Z,72.97
2022-08-03T04:08:41.471Z,73.38
2022-08-03T04:09:41.471Z,73.14
2022-08-03T04:10:41.464Z,72.97
2022-08-03T04:11:41.465Z,72.34
2022-08-03T04:12:50.206Z,72.14
2022-08-03T04:13:41.457Z,70.70
2022-08-03T04:14:41.459Z,70.73
2022-08-03T04:15:41.463Z,70.50
2022-08-03T04:16:43.791Z,70.79
2022-08-03T04:17:41.448Z,71.20
2022-08-03T04:18:41.449Z,70.86
2022-08-03T04:19:41.448Z,71.50
2022-08-03T04:20:41.450Z,71.36
2022-08-03T04:21:41.450Z,70.96
2022-08-03T04:22:41.441Z,70.36
2022-08-03T04:23:41.440Z,70.26
2022-08-03T04:24:41.435Z,70.06
2022-08-03T04:25:41.437Z,69.22
2022-08-03T04:26:41.434Z,68.41
2022-08-03T04:27:41.439Z,68.41
2022-08-03T04:28:41.423Z,68.72
2022-08-03T04:29:44.884Z,68.62
2022-08-03T04:30:41.459Z,68.02
2022-08-03T04:31:41.420Z,67.68
2022-08-03T04:32:45.690Z,67.91
2022-08-03T04:33:41.420Z,68.62
2022-08-03T04:34:41.418Z,67.68
2022-08-03T04:36:00.871Z,68.18
2022-08-03T04:36:41.423Z,67.35
2022-08-03T04:37:41.427Z,66.95
2022-08-03T04:38:41.413Z,67.35
2022-08-03T04:39:41.405Z,66.71
2022-08-03T04:40:41.403Z,66.08
2022-08-03T04:42:08.199Z,65.65
2022-08-03T04:42:41.405Z,64.18
2022-08-03T04:43:41.419Z,62.79
2022-08-03T04:44:41.410Z,60.83
2022-08-03T04:45:41.399Z,59.28
2022-08-03T04:46:41.399Z,58.33
2022-08-03T04:47:41.410Z,57.28
2022-08-03T04:48:44.593Z,55.33
2022-08-03T04:49:41.444Z,54.78
2022-08-03T04:50:41.391Z,53.06
2022-08-03T04:51:41.394Z,52.22
2022-08-03T04:52:41.393Z,51.30
2022-08-03T04:53:41.388Z,49.66
2022-08-03T04:54:41.391Z,50.43
2022-08-03T04:55:41.387Z,49.42
2022-08-03T04:56:41.388Z,48.77
2022-08-03T04:57:41.389Z,46.97
2022-08-03T04:58:41.388Z,46.16
2022-08-03T04:59:41.385Z,46.63
2022-08-03T05:00:41.389Z,45.13
2022-08-03T05:01:41.485Z,45.32
2022-08-03T05:02:41.383Z,44.51
2022-08-03T05:03:41.386Z,43.51
2022-08-03T05:04:41.394Z,43.80
2022-08-03T05:05:50.137Z,43.59
2022-08-03T05:06:47.857Z,42.69
2022-08-03T05:07:41.391Z,41.71
2022-08-03T05:08:46.182Z,40.61
2022-08-03T05:09:52.819Z,40.51
2022-08-03T05:10:41.386Z,40.29
2022-08-03T05:11:41.394Z,41.25
2022-08-03T05:12:41.392Z,41.65
2022-08-03T05:13:41.422Z,40.64
2022-08-03T05:14:41.387Z,39.47
2022-08-03T05:15:42.938Z,40.63
2022-08-03T05:16:41.389Z,40.51
2022-08-03T05:17:41.390Z,39.60
2022-08-03T05:18:41.393Z,39.80
2022-08-03T05:19:41.395Z,38.70
2022-08-03T05:20:41.401Z,40.66
2022-08-03T05:21:52.596Z,37.99
2022-08-03T05:22:41.392Z,37.70
2022-08-03T05:23:41.404Z,37.88
2022-08-03T05:24:41.397Z,36.40
2022-08-03T05:25:49.628Z,36.78
2022-08-03T05:26:41.408Z,36.49
2022-08-03T05:27:41.401Z,36.57
2022-08-03T05:28:50.807Z,34.90
2022-08-03T05:29:41.415Z,33.22
2022-08-03T05:30:41.417Z,34.57
2022-08-03T05:31:41.414Z,33.39
2022-08-03T05:32:41.417Z,34.16
2022-08-03T05:33:41.431Z,33.28
2022-08-03T05:34:41.423Z,32.29
2022-08-03T05:35:57.751Z,33.75
2022-08-03T05:36:41.424Z,33.75
2022-08-03T05:37:41.424Z,32.27
2022-08-03T05:38:41.429Z,32.35
2022-08-03T05:39:41.432Z,32.55
2022-08-03T05:40:47.004Z,31.75
2022-08-03T05:41:41.435Z,31.85
2022-08-03T05:42:41.435Z,30.18
2022-08-03T05:43:41.437Z,30.76
2022-08-03T05:44:41.441Z,30.08
2022-08-03T05:45:41.444Z,29.96
2022-08-03T05:46:41.448Z,29.07
2022-08-03T05:47:41.465Z,29.95
2022-08-03T05:48:41.458Z,29.95
2022-08-03T05:49:41.537Z,29.27
2022-08-03T05:50:42.939Z,29.17
2022-08-03T05:51:41.468Z,29.07
2022-08-03T05:52:41.487Z,30.63
2022-08-03T05:53:41.472Z,28.47
2022-08-03T05:54:55.627Z,27.69
2022-08-03T05:55:41.496Z,28.38
2022-08-03T05:56:41.495Z,27.09
2022-08-03T05:57:41.488Z,27.87
2022-08-03T05:58:41.502Z,28.07
2022-08-03T05:59:53.649Z,27.58
2022-08-03T06:00:41.513Z,27.86
2022-08-03T06:01:41.545Z,27.18
2022-08-03T06:02:41.507Z,29.91
2022-08-03T06:03:41.514Z,27.84
2022-08-03T06:04:41.511Z,27.65
2022-08-03T06:05:43.350Z,27.84
2022-08-03T06:06:41.520Z,26.78
2022-08-03T06:07:41.525Z,26.01
2022-08-03T06:08:41.560Z,25.60
2022-08-03T06:10:36.610Z,26.58
2022-08-03T06:10:41.544Z,28.82
2022-08-03T06:11:41.538Z,26.19
2022-08-03T06:12:41.541Z,26.09
2022-08-03T06:13:41.594Z,28.51
2022-08-03T06:14:41.555Z,26.28
2022-08-03T06:15:41.559Z,27.14
2022-08-03T06:16:41.562Z,25.48
2022-08-03T06:17:41.567Z,26.17
2022-08-03T06:18:41.582Z,26.15
2022-08-03T06:19:41.577Z,28.68
2022-08-03T06:20:41.656Z,26.14
2022-08-03T06:21:41.586Z,26.82
2022-08-03T06:22:50.491Z,25.45
2022-08-03T06:23:54.015Z,25.35
2022-08-03T06:24:41.607Z,26.22
2022-08-03T06:25:41.604Z,25.93
2022-08-03T06:26:41.631Z,24.85
2022-08-03T06:27:41.621Z,26.98
2022-08-03T06:28:52.850Z,25.14
2022-08-03T06:29:41.632Z,25.90
2022-08-03T06:30:41.637Z,25.52
2022-08-03T06:31:41.643Z,25.90
2022-08-03T06:32:41.645Z,24.84
2022-08-03T06:33:48.509Z,25.13
2022-08-03T06:34:41.669Z,24.45
2022-08-03T06:35:41.753Z,24.44
2022-08-03T06:36:41.676Z,24.35
2022-08-03T06:37:41.699Z,24.55
2022-08-03T06:38:41.688Z,24.93
2022-08-03T06:39:41.692Z,24.34
2022-08-03T06:40:41.697Z,24.24
2022-08-03T06:41:44.806Z,24.73
2022-08-03T06:42:42.074Z,25.88
2022-08-03T06:44:02.550Z,25.49
2022-08-03T06:44:41.720Z,25.30
2022-08-03T06:45:41.771Z,22.39
2022-08-03T06:46:41.733Z,25.20
2022-08-03T06:47:41.742Z,22.86
2022-08-03T06:48:41.749Z,23.06
2022-08-03T06:49:41.845Z,25.20
2022-08-03T06:50:41.761Z,24.41
2022-08-03T06:52:04.259Z,24.03
2022-08-03T06:52:41.771Z,23.83
2022-08-03T06:53:41.782Z,24.22
2022-08-03T06:54:41.792Z,23.82
2022-08-03T06:55:42.473Z,23.63
2022-08-03T06:56:41.803Z,23.24
2022-08-03T06:57:41.809Z,23.63
2022-08-03T06:58:41.818Z,24.78
2022-08-03T07:00:08.895Z,22.85
2022-08-03T07:00:41.833Z,23.82
2022-08-03T07:01:41.898Z,24.50
2022-08-03T07:02:41.910Z,22.85
2022-08-03T07:03:47.609Z,23.63
2022-08-03T07:04:41.862Z,22.94
2022-08-03T07:05:41.872Z,24.97
2022-08-03T07:06:41.884Z,23.12
2022-08-03T07:07:41.891Z,22.54
2022-08-03T07:08:41.894Z,22.63
2022-08-03T07:09:41.904Z,20.79
2022-08-03T07:10:41.922Z,23.40
2022-08-03T07:11:41.923Z,21.28
2022-08-03T07:12:52.749Z,22.34
2022-08-03T07:13:41.936Z,22.05
2022-08-03T07:14:41.944Z,23.59
2022-08-03T07:15:55.315Z,23.97
2022-08-03T07:16:41.955Z,23.87
2022-08-03T07:17:41.969Z,22.61
2022-08-03T07:18:41.970Z,21.94
2022-08-03T07:19:41.979Z,21.73
2022-08-03T07:20:41.992Z,22.69
2022-08-03T07:21:41.994Z,21.91
2022-08-03T07:22:42.005Z,20.64
2022-08-03T07:23:42.011Z,21.41
2022-08-03T07:24:42.016Z,20.73
2022-08-03T07:25:42.026Z,21.59
2022-08-03T07:26:42.038Z,22.06
2022-08-03T07:27:42.056Z,20.63
2022-08-03T07:28:42.053Z,20.91
2022-08-03T07:29:42.063Z,21.50
2022-08-03T07:30:42.081Z,20.43
2022-08-03T07:31:42.075Z,20.74
2022-08-03T07:32:50.186Z,20.93
2022-08-03T07:33:42.096Z,21.61
2022-08-03T07:34:42.104Z,20.74
2022-08-03T07:35:42.112Z,20.05
2022-08-03T07:36:42.125Z,20.62
2022-08-03T07:37:42.132Z,20.14
2022-08-03T07:38:42.142Z,19.74
2022-08-03T07:39:42.151Z,20.42
2022-08-03T07:40:46.145Z,20.14
2022-08-03T07:41:42.166Z,20.13
2022-08-03T07:42:42.177Z,21.00
2022-08-03T07:43:42.194Z,18.68
2022-08-03T07:44:42.200Z,19.65
2022-08-03T07:45:42.218Z,19.93
2022-08-03T07:46:42.215Z,20.32
2022-08-03T07:47:42.221Z,19.93
2022-08-03T07:48:42.234Z,20.70
2022-08-03T07:49:42.336Z,21.27
2022-08-03T07:50:42.249Z,20.20
2022-08-03T07:51:42.256Z,20.11
2022-08-03T07:52:42.265Z,18.28
2022-08-03T07:53:47.243Z,19.15
2022-08-03T07:54:42.301Z,18.95
2022-08-03T07:55:42.296Z,19.64
2022-08-03T07:56:42.313Z,21.36
2022-08-03T07:57:42.328Z,18.18
2022-08-03T07:58:42.327Z,20.11
2022-08-03T07:59:56.384Z,19.35
2022-08-03T08:00:42.343Z,18.58
2022-08-03T08:01:42.424Z,18.79
2022-08-03T08:02:42.362Z,21.21
2022-08-03T08:03:52.600Z,18.80
2022-08-03T08:04:42.410Z,20.08
2022-08-03T08:05:42.401Z,22.78
2022-08-03T08:06:42.430Z,21.42
2022-08-03T08:07:42.417Z,20.36
2022-08-03T08:08:42.425Z,20.54
2022-08-03T08:09:42.432Z,20.45
2022-08-03T08:10:42.442Z,21.11
2022-08-03T08:11:42.450Z,22.06
2022-08-03T08:12:42.456Z,20.21
2022-08-03T08:13:42.478Z,20.14
2022-08-03T08:14:42.479Z,18.90
2022-08-03T08:15:42.631Z,20.64
2022-08-03T08:16:42.499Z,18.90
2022-08-03T08:17:42.510Z,19.59
2022-08-03T08:18:42.526Z,20.26
2022-08-03T08:19:46.736Z,19.96
2022-08-03T08:20:42.538Z,20.35
2022-08-03T08:21:53.039Z,19.77
2022-08-03T08:22:42.560Z,20.16
2022-08-03T08:23:44.318Z,20.06
2022-08-03T08:24:42.589Z,20.08
2022-08-03T08:25:42.584Z,20.31
2022-08-03T08:26:42.597Z,22.44
2022-08-03T08:28:29.286Z,22.94
2022-08-03T08:28:42.615Z,22.95
2022-08-03T08:29:47.941Z,24.32
2022-08-03T08:30:42.633Z,22.20
2022-08-03T08:31:42.645Z,24.06
2022-08-03T08:32:42.646Z,25.74
2022-08-03T08:34:03.189Z,25.49
2022-08-03T08:34:42.663Z,26.31
2022-08-03T08:35:42.669Z,27.59
2022-08-03T08:36:42.675Z,26.43
2022-08-03T08:37:42.684Z,28.20
2022-08-03T08:38:42.692Z,28.14
2022-08-03T08:39:42.696Z,29.13
2022-08-03T08:40:42.703Z,27.38
2022-08-03T08:41:46.841Z,28.18
2022-08-03T08:42:57.545Z,28.57
2022-08-03T08:43:42.725Z,28.47
2022-08-03T08:44:42.728Z,29.18
2022-08-03T08:45:42.734Z,29.49
2022-08-03T08:46:42.741Z,29.39
2022-08-03T08:47:51.009Z,30.78
2022-08-03T08:48:42.751Z,30.88
2022-08-03T08:49:58.192Z,31.38
2022-08-03T08:50:42.763Z,29.52
2022-08-03T08:51:59.439Z,29.62
2022-08-03T08:52:42.775Z,30.40
2022-08-03T08:53:42.785Z,32.46
2022-08-03T08:54:42.793Z,29.72
2022-08-03T08:55:58.669Z,30.30
2022-08-03T08:56:42.798Z,30.52
2022-08-03T08:57:43.614Z,31.50
2022-08-03T08:58:42.813Z,29.43
2022-08-03T08:59:47.903Z,29.60
2022-08-03T09:00:42.837Z,28.13
2022-08-03T09:01:42.827Z,29.08
2022-08-03T09:02:42.827Z,28.96
2022-08-03T09:03:42.837Z,27.27
2022-08-03T09:04:42.843Z,26.76
2022-08-03T09:05:55.701Z,26.52
2022-08-03T09:06:53.694Z,26.59
2022-08-03T09:07:42.858Z,24.91
2022-08-03T09:08:42.864Z,24.61
2022-08-03T09:10:10.363Z,25.09
2022-08-03T09:10:42.875Z,24.62
2022-08-03T09:11:51.742Z,25.81
2022-08-03T09:12:43.073Z,26.51
2022-08-03T09:13:42.895Z,27.02
2022-08-03T09:14:55.136Z,27.93
2022-08-03T09:15:42.911Z,27.29
2022-08-03T09:16:42.913Z,28.68
2022-08-03T09:17:45.428Z,28.40
2022-08-03T09:18:42.922Z,28.22
2022-08-03T09:19:42.928Z,29.62
2022-08-03T09:20:42.933Z,30.70
2022-08-03T09:21:42.944Z,31.30
2022-08-03T09:22:42.943Z,29.73
2022-08-03T09:23:51.845Z,31.12
2022-08-03T09:24:43.488Z,30.53
2022-08-03T09:25:42.959Z,30.14
2022-08-03T09:26:42.965Z,31.13
2022-08-03T09:27:42.970Z,30.45
2022-08-03T09:29:01.328Z,30.45
2022-08-03T09:29:42.981Z,31.73
2022-08-03T09:30:42.987Z,31.05
2022-08-03T09:31:43.201Z,30.84
2022-08-03T09:32:42.986Z,31.74
2022-08-03T09:33:42.993Z,31.64
2022-08-03T09:34:43.000Z,30.66
2022-08-03T09:35:58.505Z,31.64
2022-08-03T09:36:43.020Z,32.53
2022-08-03T09:38:13.920Z,31.84
2022-08-03T09:38:43.027Z,32.33
2022-08-03T09:39:43.021Z,32.04
2022-08-03T09:40:43.022Z,32.43
2022-08-03T09:41:43.028Z,31.94
2022-08-03T09:42:43.031Z,33.61
2022-08-03T09:43:43.038Z,31.94
2022-08-03T09:44:43.041Z,31.66
2022-08-03T09:45:43.044Z,32.04
2022-08-03T09:46:43.050Z,32.34
2022-08-03T09:47:44.919Z,32.15
2022-08-03T09:48:43.051Z,31.16
2022-08-03T09:49:43.110Z,33.23
2022-08-03T09:50:43.063Z,32.64
2022-08-03T09:52:31.804Z,33.23
2022-08-03T09:52:50.029Z,33.72
2022-08-03T09:53:51.497Z,32.93
2022-08-03T09:54:43.082Z,31.95
2022-08-03T09:56:34.774Z,32.33
2022-08-03T09:56:43.083Z,31.45
2022-08-03T09:57:43.093Z,31.54
2022-08-03T09:58:43.096Z,32.33
2022-08-03T09:59:43.101Z,30.58
2022-08-03T10:00:43.143Z,30.95
2022-08-03T10:01:43.185Z,32.53
2022-08-03T10:02:43.113Z,31.15
2022-08-03T10:04:02.965Z,32.23
2022-08-03T10:04:43.119Z,32.72
2022-08-03T10:05:43.125Z,31.74
2022-08-03T10:06:43.127Z,33.31
2022-08-03T10:07:46.117Z,32.62
2022-08-03T10:08:43.134Z,32.04
2022-08-03T10:09:43.142Z,34.10
2022-08-03T10:10:43.147Z,33.70
2022-08-03T10:11:43.154Z,33.43
2022-08-03T10:12:43.150Z,32.05
2022-08-03T10:13:43.154Z,32.74
2022-08-03T10:14:43.160Z,32.24
2022-08-03T10:16:22.946Z,33.51
2022-08-03T10:16:43.162Z,31.56
2022-08-03T10:17:43.170Z,31.54
2022-08-03T10:18:43.173Z,33.70
2022-08-03T10:19:43.181Z,31.84
2022-08-03T10:20:43.186Z,32.62
2022-08-03T10:21:43.187Z,31.74
2022-08-03T10:22:43.184Z,32.23
2022-08-03T10:23:43.191Z,34.10
2022-08-03T10:24:43.193Z,32.82
2022-08-03T10:25:43.197Z,32.43
2022-08-03T10:26:49.987Z,33.51
2022-08-03T10:27:43.207Z,31.94
2022-08-03T10:28:45.488Z,32.04
2022-08-03T10:29:43.216Z,32.04
2022-08-03T10:30:43.217Z,31.46
2022-08-03T10:31:57.746Z,32.34
2022-08-03T10:32:43.222Z,32.62
2022-08-03T10:33:51.982Z,32.53
2022-08-03T10:34:44.687Z,32.04
2022-08-03T10:35:43.240Z,31.92
2022-08-03T10:36:43.245Z,30.82
2022-08-03T10:37:43.246Z,31.50
2022-08-03T10:38:43.248Z,30.42
2022-08-03T10:39:43.254Z,31.81
2022-08-03T10:40:53.480Z,32.28
2022-08-03T10:41:43.265Z,32.57
2022-08-03T10:42:43.265Z,31.40
2022-08-03T10:43:43.271Z,32.59
2022-08-03T10:44:43.274Z,32.57
2022-08-03T10:45:43.276Z,30.81
2022-08-03T10:46:45.183Z,32.09
2022-08-03T10:47:43.286Z,33.65
2022-08-03T10:48:43.289Z,32.57
2022-08-03T10:49:43.355Z,31.99
2022-08-03T10:50:43.293Z,32.48
2022-08-03T10:51:43.297Z,31.99
2022-08-03T10:52:45.371Z,30.81
2022-08-03T10:53:44.114Z,31.89
2022-08-03T10:54:43.335Z,31.60
2022-08-03T10:55:43.321Z,32.09
2022-08-03T10:56:49.738Z,33.75
2022-08-03T10:57:43.320Z,32.48
2022-08-03T10:58:57.703Z,31.30
2022-08-03T10:59:43.330Z,31.99
2022-08-03T11:00:43.384Z,32.17
2022-08-03T11:01:58.183Z,32.66
2022-08-03T11:02:43.343Z,31.87
2022-08-03T11:03:43.346Z,33.44
2022-08-03T11:04:43.364Z,31.58
2022-08-03T11:05:43.352Z,30.00
2022-08-03T11:06:43.368Z,30.39
2022-08-03T11:07:43.361Z,31.76
2022-08-03T11:08:43.366Z,32.25
2022-08-03T11:09:43.374Z,31.67
2022-08-03T11:10:43.379Z,31.26
2022-08-03T11:11:43.381Z,30.39
2022-08-03T11:12:43.382Z,31.76
2022-08-03T11:13:43.393Z,31.37
2022-08-03T11:14:43.393Z,30.29
2022-08-03T11:15:43.393Z,32.35
2022-08-03T11:16:43.404Z,30.39
2022-08-03T11:17:46.450Z,31.57
2022-08-03T11:18:43.411Z,31.74
2022-08-03T11:19:57.366Z,31.26
2022-08-03T11:20:43.416Z,31.94
2022-08-03T11:21:43.420Z,31.45
2022-08-03T11:22:43.423Z,30.85
2022-08-03T11:24:03.420Z,30.85
2022-08-03T11:24:43.431Z,30.26
2022-08-03T11:25:54.858Z,31.24
2022-08-03T11:26:43.443Z,30.94
2022-08-03T11:27:43.443Z,30.05
2022-08-03T11:28:43.454Z,31.03
2022-08-03T11:29:43.461Z,31.52
2022-08-03T11:30:43.459Z,29.58
2022-08-03T11:31:51.812Z,30.94
2022-08-03T11:32:46.740Z,31.06
2022-08-03T11:33:43.468Z,30.68
2022-08-03T11:34:43.474Z,29.90
2022-08-03T11:35:43.479Z,30.21
2022-08-03T11:36:43.485Z,31.19
2022-08-03T11:37:43.490Z,30.49
2022-08-03T11:38:43.494Z,30.98
2022-08-03T11:39:43.503Z,30.68
2022-08-03T11:40:43.530Z,31.55
2022-08-03T11:41:45.229Z,30.47
2022-08-03T11:42:43.509Z,30.27
2022-08-03T11:43:43.514Z,29.69
2022-08-03T11:44:47.454Z,30.77
2022-08-03T11:45:43.528Z,30.75
2022-08-03T11:46:43.535Z,29.58
2022-08-03T11:47:50.714Z,30.75
2022-08-03T11:48:43.536Z,30.46
2022-08-03T11:49:43.599Z,29.95
2022-08-03T11:50:43.546Z,29.77
2022-08-03T11:51:43.557Z,31.71
2022-08-03T11:52:43.556Z,29.66
2022-08-03T11:53:43.561Z,30.35
2022-08-03T11:54:43.564Z,29.66
2022-08-03T11:55:43.571Z,29.66
2022-08-03T11:56:43.577Z,31.51
2022-08-03T11:59:01.306Z,30.23
2022-08-03T11:59:14.260Z,30.23
2022-08-03T11:59:43.592Z,32.39
2022-08-03T12:00:43.592Z,28.86
2022-08-03T12:01:43.598Z,29.44
2022-08-03T12:02:43.934Z,29.73
2022-08-03T12:03:43.661Z,30.51
2022-08-03T12:04:43.610Z,28.55
2022-08-03T12:05:51.054Z,29.16
2022-08-03T12:06:47.256Z,29.25
2022-08-03T12:08:03.494Z,29.16
2022-08-03T12:08:43.634Z,29.35
2022-08-03T12:09:43.640Z,29.74
2022-08-03T12:10:43.640Z,31.41
2022-08-03T12:11:59.709Z,29.84
2022-08-03T12:12:46.530Z,29.24
2022-08-03T12:14:33.082Z,29.83
2022-08-03T12:14:48.638Z,28.75
2022-08-03T12:15:43.665Z,28.85
2022-08-03T12:16:43.665Z,29.44
2022-08-03T12:17:43.729Z,30.22
2022-08-03T12:18:43.676Z,29.63
2022-08-03T12:19:43.717Z,30.51
2022-08-03T12:20:43.687Z,29.14
2022-08-03T12:21:43.695Z,29.34
2022-08-03T12:22:43.697Z,28.45
2022-08-03T12:23:43.704Z,29.04
2022-08-03T12:24:43.705Z,28.94
2022-08-03T12:25:43.714Z,28.75
2022-08-03T12:26:43.719Z,29.93
2022-08-03T12:27:43.724Z,29.24
2022-08-03T12:28:48.049Z,29.24
2022-08-03T12:29:43.732Z,28.26
2022-08-03T12:30:43.738Z,29.73
2022-08-03T12:31:43.747Z,29.14
2022-08-03T12:32:43.748Z,29.73
2022-08-03T12:33:43.753Z,28.65
2022-08-03T12:34:47.052Z,28.85
2022-08-03T12:35:52.130Z,28.45
2022-08-03T12:36:43.767Z,27.67
2022-08-03T12:37:43.772Z,28.36
2022-08-03T12:38:43.778Z,28.85
2022-08-03T12:40:02.744Z,30.41
2022-08-03T12:40:43.789Z,29.53
2022-08-03T12:41:43.793Z,29.73
2022-08-03T12:42:43.805Z,29.34
2022-08-03T12:43:43.805Z,29.44
2022-08-03T12:44:43.813Z,30.10
2022-08-03T12:45:43.819Z,28.85
2022-08-03T12:46:47.732Z,29.14
2022-08-03T12:47:43.829Z,29.16
2022-08-03T12:48:43.827Z,29.63
2022-08-03T12:49:43.831Z,29.24
2022-08-03T12:50:43.837Z,28.77
2022-08-03T12:51:43.855Z,30.04
2022-08-03T12:52:43.855Z,29.45